Time;durP1;ratioP1;P1;durP2;ratioP2;P2;SDS_P1;SDS_P2;PMS_P1;PMS_P2;Temp;Humidity;BMP_temperature;BMP_pressure;BME280_temperature;BME280_humidity;BME280_pressure;Samples;Min_cycle;Max_cycle;Signal;HPM_P1;HPM_P2
2022/01/10 00:00:26;;;;;;;36.05;10.95;;;;;;;;;;5069682;28;20036;-86
2022/01/10 00:02:53;;;;;;;33.45;10.95;;;;;;;;;;5069973;28;20047;-85
2022/01/10 00:05:20;;;;;;;33.40;11.05;;;;;;;;;;5054450;28;20127;-85
2022/01/10 00:07:46;;;;;;;38.78;11.80;;;;;;;;;;5067463;28;20124;-85
2022/01/10 00:10:13;;;;;;;30.48;10.88;;;;;;;;;;5079331;28;20075;-85
2022/01/10 00:12:40;;;;;;;40.45;11.13;;;;;;;;;;5069760;28;20453;-85
2022/01/10 00:15:07;;;;;;;27.95;10.52;;;;;;;;;;5069387;28;20040;-86
2022/01/10 00:17:33;;;;;;;36.00;11.73;;;;;;;;;;5057508;28;20556;-85
2022/01/10 00:19:59;;;;;;;37.80;10.95;;;;;;;;;;5069389;28;20036;-86
2022/01/10 00:22:26;;;;;;;28.50;10.95;;;;;;;;;;5065955;28;20032;-86
2022/01/10 00:24:52;;;;;;;31.88;10.80;;;;;;;;;;5069275;28;20041;-85
2022/01/10 00:27:19;;;;;;;25.50;10.82;;;;;;;;;;5069878;28;20403;-86
2022/01/10 00:29:45;;;;;;;35.58;11.98;;;;;;;;;;5077655;28;20036;-86
2022/01/10 00:32:11;;;;;;;33.53;10.65;;;;;;;;;;5077082;28;20044;-85
2022/01/10 00:34:37;;;;;;;28.73;10.57;;;;;;;;;;5085842;28;20051;-85
2022/01/10 00:37:04;;;;;;;37.28;11.77;;;;;;;;;;5069024;28;20036;-86
2022/01/10 00:39:30;;;;;;;26.73;10.05;;;;;;;;;;5069725;28;20032;-86
2022/01/10 00:41:56;;;;;;;30.00;11.52;;;;;;;;;;5069260;28;20451;-86
2022/01/10 00:44:26;;;;;;;30.23;11.55;;;;;;;;;;5069300;28;20467;-85
2022/01/10 00:46:52;;;;;;;25.92;10.63;;;;;;;;;;5088382;28;20071;-85
2022/01/10 00:49:18;;;;;;;20.83;9.43;;;;;;;;;;5069208;28;20036;-86
2022/01/10 00:51:45;;;;;;;27.40;9.55;;;;;;;;;;5052338;28;20071;-86
2022/01/10 00:54:11;;;;;;;27.80;10.57;;;;;;;;;;5052241;28;20072;-86
2022/01/10 00:56:37;;;;;;;29.75;9.75;;;;;;;;;;5085048;28;20116;-85
2022/01/10 00:59:03;;;;;;;27.83;9.80;;;;;;;;;;5075591;28;20353;-85
2022/01/10 01:01:29;;;;;;;31.77;10.75;;;;;;;;;;5061548;28;20507;-85
2022/01/10 01:03:56;;;;;;;28.70;10.13;;;;;;;;;;5083722;28;20605;-85
2022/01/10 01:06:22;;;;;;;25.10;9.88;;;;;;;;;;5072615;28;20040;-85
2022/01/10 01:08:48;;;;;;;24.92;10.27;;;;;;;;;;5099591;28;20051;-85
2022/01/10 01:14:10;;;;;;;30.08;10.00;;;;;;;;;;5053323;28;20488;-86
2022/01/10 01:24:28;;;;;;;31.38;11.05;;;;;;;;;;5068243;28;20111;-85
2022/01/10 01:26:54;;;;;;;22.13;9.77;;;;;;;;;;5077930;28;20518;-86
2022/01/10 01:29:25;;;;;;;26.45;9.77;;;;;;;;;;5057756;28;20493;-86
2022/01/10 01:31:52;;;;;;;36.35;11.98;;;;;;;;;;5084549;28;20415;-86
2022/01/10 01:34:19;;;;;;;31.48;10.90;;;;;;;;;;5056916;28;20036;-85
2022/01/10 01:36:49;;;;;;;27.90;11.00;;;;;;;;;;5068124;28;20078;-85
2022/01/10 01:39:21;;;;;;;26.05;10.68;;;;;;;;;;5057363;28;20612;-85
2022/01/10 01:41:54;;;;;;;28.88;11.25;;;;;;;;;;5071704;28;20365;-85
2022/01/10 01:44:21;;;;;;;28.80;11.25;;;;;;;;;;5080686;28;20044;-85
2022/01/10 01:46:47;;;;;;;25.42;10.00;;;;;;;;;;5067982;28;20135;-85
2022/01/10 01:49:14;;;;;;;41.60;11.43;;;;;;;;;;5066421;28;20040;-85
2022/01/10 01:51:40;;;;;;;28.90;11.57;;;;;;;;;;5071383;28;20070;-85
2022/01/10 01:54:08;;;;;;;26.73;10.02;;;;;;;;;;5081459;28;20393;-85
2022/01/10 01:56:34;;;;;;;37.30;10.93;;;;;;;;;;5062035;28;20479;-85
2022/01/10 01:59:01;;;;;;;32.75;11.48;;;;;;;;;;5071695;28;20050;-84
2022/01/10 02:01:28;;;;;;;30.50;10.73;;;;;;;;;;5071395;28;20500;-85
2022/01/10 02:03:54;;;;;;;26.80;10.48;;;;;;;;;;5081952;28;20470;-85
2022/01/10 02:06:20;;;;;;;31.98;11.05;;;;;;;;;;5077860;28;20453;-85
2022/01/10 02:08:46;;;;;;;24.48;9.85;;;;;;;;;;5067353;28;20130;-85
2022/01/10 02:11:13;;;;;;;28.20;11.35;;;;;;;;;;5069590;28;20102;-84
2022/01/10 02:13:43;;;;;;;25.88;10.57;;;;;;;;;;5056384;28;20089;-85
2022/01/10 02:16:21;;;;;;;29.75;10.52;;;;;;;;;;5067437;28;20036;-84
2022/01/10 02:18:51;;;;;;;29.50;10.93;;;;;;;;;;5067929;28;20313;-85
2022/01/10 02:21:17;;;;;;;30.33;11.43;;;;;;;;;;5076297;28;20089;-85
2022/01/10 02:23:43;;;;;;;33.47;11.55;;;;;;;;;;5075017;28;20039;-85
2022/01/10 02:26:10;;;;;;;27.80;11.13;;;;;;;;;;5075983;28;20083;-85
2022/01/10 02:28:36;;;;;;;25.15;11.52;;;;;;;;;;5082968;28;20040;-84
2022/01/10 02:31:02;;;;;;;27.08;11.57;;;;;;;;;;5067607;28;20044;-85
2022/01/10 02:33:30;;;;;;;33.83;12.52;;;;;;;;;;5057430;28;20079;-85
2022/01/10 02:38:45;;;;;;;31.77;11.60;;;;;;;;;;5084141;28;20041;-84
2022/01/10 02:41:12;;;;;;;34.17;11.52;;;;;;;;;;5067282;28;20097;-85
2022/01/10 02:43:38;;;;;;;31.13;12.23;;;;;;;;;;5076796;28;20087;-84
2022/01/10 02:46:05;;;;;;;32.95;12.52;;;;;;;;;;5073553;28;20083;-84
2022/01/10 02:48:31;;;;;;;26.98;11.75;;;;;;;;;;5067165;28;20423;-85
2022/01/10 02:50:57;;;;;;;28.67;11.98;;;;;;;;;;5055426;28;20050;-84
2022/01/10 02:53:23;;;;;;;28.90;12.05;;;;;;;;;;5078040;28;20067;-84
2022/01/10 02:55:50;;;;;;;33.05;11.98;;;;;;;;;;5079932;28;20036;-84
2022/01/10 02:58:16;;;;;;;26.42;12.32;;;;;;;;;;5086721;28;20048;-84
2022/01/10 03:00:42;;;;;;;28.38;11.57;;;;;;;;;;5071268;28;20093;-84
2022/01/10 03:03:08;;;;;;;27.88;12.73;;;;;;;;;;5079313;28;20132;-84
2022/01/10 03:05:34;;;;;;;32.22;12.35;;;;;;;;;;5079560;28;20370;-84
2022/01/10 03:08:02;;;;;;;29.38;11.85;;;;;;;;;;5070568;28;20044;-84
2022/01/10 03:10:29;;;;;;;27.38;11.88;;;;;;;;;;5068043;28;20508;-84
2022/01/10 03:12:55;;;;;;;29.83;13.38;;;;;;;;;;5079889;28;20082;-84
2022/01/10 03:15:21;;;;;;;30.00;13.10;;;;;;;;;;5075373;28;20059;-84
2022/01/10 03:17:47;;;;;;;32.60;13.85;;;;;;;;;;5065850;28;20051;-84
2022/01/10 03:20:14;;;;;;;29.90;13.75;;;;;;;;;;5067148;28;20496;-84
2022/01/10 03:22:40;;;;;;;28.08;13.15;;;;;;;;;;5066801;28;20508;-84
2022/01/10 03:25:07;;;;;;;32.33;14.60;;;;;;;;;;5050184;28;20080;-84
2022/01/10 03:27:33;;;;;;;32.15;14.00;;;;;;;;;;5064739;28;20044;-84
2022/01/10 03:30:30;;;;;;;31.77;14.13;;;;;;;;;;5066734;28;20055;-84
2022/01/10 03:32:59;;;;;;;35.33;15.77;;;;;;;;;;5050024;28;20044;-83
2022/01/10 03:35:25;;;;;;;41.70;16.20;;;;;;;;;;5081757;28;20044;-83
2022/01/10 03:37:51;;;;;;;39.10;17.25;;;;;;;;;;5070524;28;20645;-83
2022/01/10 03:40:17;;;;;;;33.28;15.23;;;;;;;;;;5080260;28;20543;-83
2022/01/10 03:42:44;;;;;;;36.15;15.98;;;;;;;;;;5060307;28;20484;-84
2022/01/10 03:45:10;;;;;;;37.42;15.43;;;;;;;;;;5066868;28;20403;-83
2022/01/10 03:47:36;;;;;;;41.28;17.63;;;;;;;;;;5066131;28;20355;-83
2022/01/10 03:50:04;;;;;;;34.10;15.93;;;;;;;;;;5072045;28;20123;-83
2022/01/10 03:52:31;;;;;;;45.83;19.33;;;;;;;;;;5085807;28;20044;-83
2022/01/10 03:54:57;;;;;;;38.95;18.45;;;;;;;;;;5076240;28;20075;-83
2022/01/10 03:57:23;;;;;;;43.65;19.95;;;;;;;;;;5086293;28;20047;-83
2022/01/10 03:59:49;;;;;;;45.03;20.27;;;;;;;;;;5076049;28;20036;-83
2022/01/10 04:02:15;;;;;;;51.17;21.50;;;;;;;;;;5081085;28;20389;-83
2022/01/10 04:04:42;;;;;;;44.17;20.23;;;;;;;;;;5083542;28;20039;-83
2022/01/10 04:07:08;;;;;;;45.42;19.20;;;;;;;;;;5073316;28;20064;-83
2022/01/10 04:09:34;;;;;;;50.08;20.58;;;;;;;;;;5085530;28;20474;-83
2022/01/10 04:12:00;;;;;;;45.45;19.80;;;;;;;;;;5078224;28;20040;-83
2022/01/10 04:14:27;;;;;;;46.92;18.45;;;;;;;;;;5077640;28;20329;-83
2022/01/10 04:16:53;;;;;;;40.80;18.83;;;;;;;;;;5086385;28;20441;-83
2022/01/10 04:19:19;;;;;;;47.03;19.23;;;;;;;;;;5085896;28;20037;-83
2022/01/10 04:21:45;;;;;;;45.17;18.63;;;;;;;;;;5077336;28;20315;-83
2022/01/10 04:24:12;;;;;;;42.83;19.40;;;;;;;;;;5077946;28;20048;-83
2022/01/10 04:26:38;;;;;;;45.65;20.02;;;;;;;;;;5084932;28;20097;-83
2022/01/10 04:29:04;;;;;;;49.05;20.92;;;;;;;;;;5073186;28;20377;-83
2022/01/10 04:31:30;;;;;;;43.90;20.60;;;;;;;;;;5082454;28;20151;-83
2022/01/10 04:33:56;;;;;;;45.22;20.95;;;;;;;;;;5080544;28;20055;-83
2022/01/10 04:36:23;;;;;;;38.67;18.42;;;;;;;;;;5069503;28;20067;-83
2022/01/10 04:38:49;;;;;;;47.00;20.88;;;;;;;;;;5069110;28;20482;-83
2022/01/10 04:41:15;;;;;;;49.67;21.52;;;;;;;;;;5075830;28;20051;-83
2022/01/10 04:43:41;;;;;;;52.15;21.38;;;;;;;;;;5078725;28;20036;-83
2022/01/10 04:46:08;;;;;;;46.45;21.40;;;;;;;;;;5081601;28;20096;-83
2022/01/10 04:48:34;;;;;;;47.63;19.77;;;;;;;;;;5055756;28;20055;-83
2022/01/10 04:53:29;;;;;;;45.95;21.42;;;;;;;;;;5062043;28;20048;-83
2022/01/10 04:55:55;;;;;;;47.08;20.00;;;;;;;;;;5057831;28;20158;-83
2022/01/10 04:58:22;;;;;;;54.65;22.88;;;;;;;;;;5068428;28;20040;-83
2022/01/10 05:00:51;;;;;;;49.13;20.83;;;;;;;;;;5057949;28;20036;-83
2022/01/10 05:03:18;;;;;;;49.53;21.88;;;;;;;;;;5062303;28;20403;-83
2022/01/10 05:05:44;;;;;;;49.53;21.30;;;;;;;;;;5065889;28;20040;-83
2022/01/10 05:08:10;;;;;;;47.85;22.13;;;;;;;;;;5069410;28;20052;-82
2022/01/10 05:10:37;;;;;;;55.55;21.65;;;;;;;;;;5057333;28;20040;-83
2022/01/10 05:13:03;;;;;;;58.20;23.98;;;;;;;;;;5062363;28;20496;-83
2022/01/10 05:15:30;;;;;;;55.85;24.00;;;;;;;;;;5065129;28;20093;-83
2022/01/10 05:17:56;;;;;;;54.70;24.13;;;;;;;;;;5068081;28;20064;-82
2022/01/10 05:20:23;;;;;;;62.08;25.17;;;;;;;;;;5056534;28;20552;-82
2022/01/10 05:22:49;;;;;;;51.33;24.10;;;;;;;;;;5071631;28;20470;-82
2022/01/10 05:25:15;;;;;;;53.22;24.17;;;;;;;;;;5058793;28;20040;-83
2022/01/10 05:27:41;;;;;;;54.58;24.17;;;;;;;;;;5067961;28;20417;-82
2022/01/10 05:30:08;;;;;;;54.67;24.85;;;;;;;;;;5055752;28;20137;-82
2022/01/10 05:32:49;;;;;;;61.20;25.40;;;;;;;;;;5063253;28;20055;-82
2022/01/10 05:35:15;;;;;;;58.25;24.33;;;;;;;;;;5065286;28;20044;-83
2022/01/10 05:37:41;;;;;;;50.08;23.33;;;;;;;;;;5054722;28;20102;-82
2022/01/10 05:40:08;;;;;;;58.40;25.52;;;;;;;;;;5066436;28;20128;-82
2022/01/10 05:42:34;;;;;;;54.35;25.92;;;;;;;;;;5044478;28;20515;-82
2022/01/10 05:45:02;;;;;;;57.40;24.73;;;;;;;;;;5057573;28;20049;-82
2022/01/10 05:47:28;;;;;;;50.83;25.27;;;;;;;;;;5068523;28;20056;-82
2022/01/10 05:50:01;;;;;;;56.78;24.90;;;;;;;;;;5066066;28;20392;-82
2022/01/10 05:52:27;;;;;;;58.88;25.08;;;;;;;;;;5060625;28;20054;-82
2022/01/10 05:54:53;;;;;;;64.43;27.20;;;;;;;;;;5057379;28;20040;-82
2022/01/10 05:57:19;;;;;;;67.10;28.95;;;;;;;;;;5050643;28;20468;-82
2022/01/10 05:59:45;;;;;;;58.13;28.52;;;;;;;;;;5055837;28;20036;-82
2022/01/10 06:02:11;;;;;;;58.10;26.77;;;;;;;;;;5062094;28;20563;-82
2022/01/10 06:04:37;;;;;;;61.35;26.75;;;;;;;;;;5063693;28;20066;-82
2022/01/10 06:07:03;;;;;;;63.95;28.15;;;;;;;;;;5054283;28;20040;-83
2022/01/10 06:09:30;;;;;;;56.15;26.35;;;;;;;;;;5066360;28;20044;-82
2022/01/10 06:11:56;;;;;;;66.28;30.33;;;;;;;;;;5058928;28;20089;-82
2022/01/10 06:14:22;;;;;;;57.47;27.52;;;;;;;;;;5058242;28;20488;-82
2022/01/10 06:16:48;;;;;;;67.85;30.63;;;;;;;;;;5066598;28;20044;-82
2022/01/10 06:19:14;;;;;;;58.22;28.92;;;;;;;;;;5054487;28;20044;-82
2022/01/10 06:21:40;;;;;;;66.68;30.45;;;;;;;;;;5062888;28;20072;-82
2022/01/10 06:24:07;;;;;;;70.70;34.17;;;;;;;;;;5078564;28;20075;-82
2022/01/10 06:26:33;;;;;;;66.20;33.53;;;;;;;;;;5055364;28;20047;-82
2022/01/10 06:28:59;;;;;;;64.43;33.83;;;;;;;;;;5066626;28;20052;-82
2022/01/10 06:31:25;;;;;;;76.00;35.75;;;;;;;;;;5040579;28;20044;-82
2022/01/10 06:33:52;;;;;;;68.60;34.60;;;;;;;;;;5059533;28;20119;-82
2022/01/10 06:36:18;;;;;;;64.00;32.50;;;;;;;;;;5064795;28;20074;-82
2022/01/10 06:38:44;;;;;;;67.57;33.03;;;;;;;;;;5054031;28;20051;-82
2022/01/10 06:41:11;;;;;;;56.63;33.72;;;;;;;;;;5063880;28;20032;-82
2022/01/10 06:43:43;;;;;;;71.15;36.95;;;;;;;;;;5043768;28;20348;-82
2022/01/10 06:46:09;;;;;;;68.38;36.15;;;;;;;;;;5055650;28;20141;-82
2022/01/10 06:48:35;;;;;;;66.40;36.65;;;;;;;;;;5066473;28;20101;-82
2022/01/10 06:51:01;;;;;;;72.18;36.10;;;;;;;;;;5056877;28;20499;-82
2022/01/10 06:53:28;;;;;;;62.60;34.58;;;;;;;;;;5059966;28;20048;-82
2022/01/10 06:55:54;;;;;;;72.35;37.47;;;;;;;;;;5064081;28;20093;-82
2022/01/10 06:58:20;;;;;;;87.38;40.17;;;;;;;;;;5053808;28;20032;-82
2022/01/10 07:00:46;;;;;;;77.32;39.38;;;;;;;;;;5064645;28;20036;-82
2022/01/10 07:03:12;;;;;;;82.88;40.63;;;;;;;;;;5050630;28;20283;-81
2022/01/10 07:05:39;;;;;;;88.93;41.83;;;;;;;;;;5063483;28;20127;-82
2022/01/10 07:08:05;;;;;;;70.18;39.00;;;;;;;;;;5053956;28;20132;-82
2022/01/10 07:10:31;;;;;;;83.00;42.50;;;;;;;;;;5065253;28;20068;-82
2022/01/10 07:12:58;;;;;;;80.18;43.33;;;;;;;;;;5058795;28;20059;-82
2022/01/10 07:15:26;;;;;;;78.55;43.17;;;;;;;;;;5057192;28;20145;-81
2022/01/10 07:17:52;;;;;;;87.90;44.65;;;;;;;;;;5066031;28;20258;-81
2022/01/10 07:20:20;;;;;;;83.75;43.80;;;;;;;;;;5054557;28;20404;-80
2022/01/10 07:22:47;;;;;;;83.97;43.40;;;;;;;;;;5067249;28;20044;-81
2022/01/10 07:25:13;;;;;;;80.00;43.40;;;;;;;;;;5056790;28;20504;-81
2022/01/10 07:27:39;;;;;;;79.72;44.92;;;;;;;;;;5060553;28;20041;-81
2022/01/10 07:30:06;;;;;;;86.07;46.45;;;;;;;;;;5057604;28;20093;-81
2022/01/10 07:32:32;;;;;;;77.80;44.17;;;;;;;;;;5067558;28;20385;-82
2022/01/10 07:34:58;;;;;;;94.32;46.78;;;;;;;;;;5069418;28;20387;-81
2022/01/10 07:37:25;;;;;;;90.15;47.42;;;;;;;;;;5066310;28;20040;-81
2022/01/10 07:39:51;;;;;;;116.78;60.97;;;;;;;;;;5072712;28;20036;-82
2022/01/10 07:42:17;;;;;;;135.20;70.03;;;;;;;;;;5068724;28;20044;-82
2022/01/10 07:44:43;;;;;;;130.40;69.75;;;;;;;;;;5057447;28;20097;-82
2022/01/10 07:47:09;;;;;;;123.15;67.35;;;;;;;;;;5060189;28;20136;-81
2022/01/10 07:49:36;;;;;;;154.95;82.32;;;;;;;;;;5052201;28;20041;-81
2022/01/10 07:52:02;;;;;;;143.40;74.20;;;;;;;;;;5058529;28;20036;-81
2022/01/10 07:54:28;;;;;;;132.02;70.35;;;;;;;;;;5058264;28;20040;-81
2022/01/10 07:56:55;;;;;;;118.43;60.67;;;;;;;;;;5050853;28;20040;-81
2022/01/10 07:59:22;;;;;;;109.85;54.85;;;;;;;;;;5056552;28;20040;-81
2022/01/10 08:01:49;;;;;;;92.93;53.08;;;;;;;;;;5067210;28;20054;-82
2022/01/10 08:04:15;;;;;;;97.82;52.08;;;;;;;;;;5046637;28;20051;-81
2022/01/10 08:06:42;;;;;;;86.20;46.28;;;;;;;;;;5059399;28;20439;-81
2022/01/10 08:09:17;;;;;;;84.93;46.35;;;;;;;;;;5069855;28;20040;-81
2022/01/10 08:11:43;;;;;;;86.25;49.78;;;;;;;;;;5059631;28;20046;-81
2022/01/10 08:14:09;;;;;;;87.22;47.80;;;;;;;;;;5060711;28;20085;-82
2022/01/10 08:16:36;;;;;;;85.43;49.05;;;;;;;;;;5060388;28;20032;-81
2022/01/10 08:19:03;;;;;;;97.78;50.50;;;;;;;;;;5048358;28;20040;-82
2022/01/10 08:21:29;;;;;;;101.55;51.50;;;;;;;;;;5058050;28;20048;-81
2022/01/10 08:23:55;;;;;;;97.60;50.92;;;;;;;;;;5064380;28;20044;-81
2022/01/10 08:26:21;;;;;;;94.88;52.15;;;;;;;;;;5058396;28;20098;-81
2022/01/10 08:28:47;;;;;;;96.10;56.35;;;;;;;;;;5051784;28;20072;-81
2022/01/10 08:31:13;;;;;;;101.55;56.83;;;;;;;;;;5051464;28;20043;-81
2022/01/10 08:33:41;;;;;;;95.15;54.90;;;;;;;;;;5051876;28;20399;-81
2022/01/10 08:36:08;;;;;;;94.88;55.58;;;;;;;;;;5051971;28;20047;-81
2022/01/10 08:38:34;;;;;;;98.47;53.67;;;;;;;;;;5045905;28;20456;-82
2022/01/10 08:41:00;;;;;;;113.43;63.92;;;;;;;;;;5053625;28;20061;-82
2022/01/10 08:43:26;;;;;;;107.20;65.10;;;;;;;;;;5057505;28;20044;-81
2022/01/10 08:45:52;;;;;;;120.57;63.08;;;;;;;;;;5057736;28;20067;-81
2022/01/10 08:48:18;;;;;;;114.30;60.00;;;;;;;;;;5035760;28;20040;-81
2022/01/10 08:50:45;;;;;;;120.15;62.50;;;;;;;;;;5073629;28;20480;-82
2022/01/10 08:53:11;;;;;;;126.72;65.80;;;;;;;;;;5063505;28;20565;-81
2022/01/10 08:55:38;;;;;;;113.10;58.13;;;;;;;;;;5048661;28;20491;-82
2022/01/10 08:58:04;;;;;;;111.32;54.78;;;;;;;;;;5061324;28;20046;-82
2022/01/10 09:00:30;;;;;;;111.05;57.95;;;;;;;;;;5070375;28;20043;-82
2022/01/10 09:02:56;;;;;;;132.35;61.28;;;;;;;;;;5071296;28;20462;-82
2022/01/10 09:05:22;;;;;;;112.97;54.17;;;;;;;;;;5057547;28;20063;-81
2022/01/10 09:07:49;;;;;;;106.38;54.58;;;;;;;;;;5060716;28;20086;-82
2022/01/10 09:10:15;;;;;;;93.93;48.83;;;;;;;;;;5052625;28;20408;-81
2022/01/10 09:12:41;;;;;;;90.80;48.10;;;;;;;;;;5059389;28;20036;-82
2022/01/10 09:15:09;;;;;;;101.70;51.55;;;;;;;;;;5052202;28;20070;-82
2022/01/10 09:17:35;;;;;;;107.95;54.22;;;;;;;;;;5065543;28;20052;-81
2022/01/10 09:20:02;;;;;;;108.93;55.75;;;;;;;;;;5069912;28;20041;-82
2022/01/10 09:22:28;;;;;;;108.50;53.17;;;;;;;;;;5068587;28;20503;-83
2022/01/10 09:24:54;;;;;;;140.40;70.40;;;;;;;;;;5061289;28;20070;-82
2022/01/10 09:27:20;;;;;;;154.75;81.95;;;;;;;;;;5068274;28;20032;-82
2022/01/10 09:29:46;;;;;;;161.57;83.28;;;;;;;;;;5053025;28;20043;-82
2022/01/10 09:32:13;;;;;;;150.52;76.38;;;;;;;;;;5064865;28;20098;-82
2022/01/10 09:34:39;;;;;;;130.35;67.13;;;;;;;;;;5063177;28;20028;-82
2022/01/10 09:37:05;;;;;;;136.50;68.55;;;;;;;;;;5068801;28;20040;-81
2022/01/10 09:39:31;;;;;;;128.95;64.68;;;;;;;;;;5068219;28;20032;-81
2022/01/10 09:41:58;;;;;;;130.18;63.55;;;;;;;;;;5076361;28;20714;-81
2022/01/10 09:44:24;;;;;;;129.00;63.38;;;;;;;;;;5070656;28;20583;-82
2022/01/10 09:46:50;;;;;;;130.13;63.25;;;;;;;;;;5066133;28;20052;-82
2022/01/10 09:49:17;;;;;;;126.35;63.97;;;;;;;;;;5072427;28;20066;-82
2022/01/10 09:51:44;;;;;;;138.85;64.05;;;;;;;;;;5058199;28;20044;-82
2022/01/10 09:54:11;;;;;;;142.50;68.72;;;;;;;;;;5072529;28;20068;-83
2022/01/10 09:56:37;;;;;;;138.85;69.20;;;;;;;;;;5063422;28;20395;-83
2022/01/10 09:59:04;;;;;;;148.52;69.57;;;;;;;;;;5049130;28;20024;-83
2022/01/10 10:01:31;;;;;;;139.70;66.70;;;;;;;;;;5060372;28;20071;-83
2022/01/10 10:04:00;;;;;;;139.73;67.18;;;;;;;;;;5060451;28;20418;-83
2022/01/10 10:06:29;;;;;;;166.10;70.30;;;;;;;;;;5064484;28;20039;-83
2022/01/10 10:09:03;;;;;;;130.07;65.75;;;;;;;;;;5046590;28;20083;-83
2022/01/10 10:11:39;;;;;;;140.68;68.72;;;;;;;;;;5081015;28;20044;-83
2022/01/10 10:14:06;;;;;;;179.93;78.07;;;;;;;;;;5063161;28;20479;-84
2022/01/10 10:16:36;;;;;;;142.10;66.10;;;;;;;;;;5066317;28;20123;-84
2022/01/10 10:19:03;;;;;;;154.50;73.07;;;;;;;;;;5065902;28;20040;-84
2022/01/10 10:21:31;;;;;;;182.68;76.10;;;;;;;;;;5050042;28;20052;-84
2022/01/10 10:23:57;;;;;;;146.25;68.43;;;;;;;;;;5067562;28;20066;-83
2022/01/10 10:26:25;;;;;;;162.43;72.82;;;;;;;;;;5066553;28;20097;-83
2022/01/10 10:28:55;;;;;;;144.45;69.30;;;;;;;;;;5060256;28;20488;-82
2022/01/10 10:31:25;;;;;;;130.63;69.00;;;;;;;;;;5060872;28;20383;-82
2022/01/10 10:33:52;;;;;;;155.25;72.35;;;;;;;;;;5060354;28;20040;-82
2022/01/10 10:36:18;;;;;;;159.95;75.95;;;;;;;;;;5048570;28;20047;-82
2022/01/10 10:38:45;;;;;;;175.07;79.07;;;;;;;;;;5063647;28;20037;-82
2022/01/10 10:41:11;;;;;;;169.93;74.78;;;;;;;;;;5041439;28;20500;-82
2022/01/10 10:43:38;;;;;;;162.35;76.18;;;;;;;;;;5056726;28;20032;-82
2022/01/10 10:46:11;;;;;;;162.02;77.10;;;;;;;;;;5057399;28;20126;-82
2022/01/10 10:48:38;;;;;;;172.52;79.47;;;;;;;;;;5047922;28;20399;-82
2022/01/10 10:51:04;;;;;;;196.75;80.88;;;;;;;;;;5069259;28;20518;-82
2022/01/10 10:53:30;;;;;;;177.65;80.10;;;;;;;;;;5068706;28;20119;-83
2022/01/10 10:56:01;;;;;;;288.35;104.57;;;;;;;;;;5047268;28;20101;-83
2022/01/10 10:58:28;;;;;;;188.82;78.93;;;;;;;;;;5060088;28;20028;-82
2022/01/10 11:00:55;;;;;;;264.52;98.63;;;;;;;;;;5066603;28;20032;-83
2022/01/10 11:03:22;;;;;;;163.27;74.85;;;;;;;;;;5069596;28;20644;-83
2022/01/10 11:05:49;;;;;;;169.32;75.55;;;;;;;;;;5071275;28;20105;-82
2022/01/10 11:08:15;;;;;;;156.55;73.05;;;;;;;;;;5069729;28;20523;-82
2022/01/10 11:10:42;;;;;;;188.32;82.00;;;;;;;;;;5066248;28;20037;-81
2022/01/10 11:13:09;;;;;;;188.88;82.78;;;;;;;;;;5064133;28;20055;-81
2022/01/10 11:15:39;;;;;;;191.70;83.18;;;;;;;;;;5071009;28;20078;-82
2022/01/10 11:18:07;;;;;;;161.40;76.38;;;;;;;;;;5060004;28;20032;-81
2022/01/10 11:20:43;;;;;;;225.00;90.53;;;;;;;;;;5066041;28;20036;-82
2022/01/10 11:23:10;;;;;;;464.60;142.30;;;;;;;;;;5074833;28;20048;-81
2022/01/10 11:25:39;;;;;;;490.98;147.30;;;;;;;;;;5067146;28;20047;-82
2022/01/10 11:28:13;;;;;;;229.27;90.57;;;;;;;;;;5070933;28;20045;-82
2022/01/10 11:30:46;;;;;;;231.47;89.60;;;;;;;;;;5067964;28;20695;-82
2022/01/10 11:33:15;;;;;;;265.85;94.18;;;;;;;;;;5075802;28;20484;-82
2022/01/10 11:35:53;;;;;;;214.57;86.50;;;;;;;;;;5057111;28;20040;-82
2022/01/10 11:38:22;;;;;;;111.50;59.00;;;;;;;;;;5067767;28;20716;-82
2022/01/10 11:40:51;;;;;;;125.97;63.80;;;;;;;;;;5064609;28;20040;-82
2022/01/10 11:43:47;;;;;;;132.60;66.60;;;;;;;;;;5055673;28;20392;-82
2022/01/10 11:46:26;;;;;;;119.97;62.08;;;;;;;;;;5062161;28;20079;-83
2022/01/10 11:48:52;;;;;;;132.30;68.68;;;;;;;;;;5066745;28;20552;-83
2022/01/10 11:51:18;;;;;;;168.30;76.18;;;;;;;;;;5056780;28;20052;-83
2022/01/10 11:53:46;;;;;;;148.80;69.80;;;;;;;;;;5067900;28;20044;-83
2022/01/10 11:56:31;;;;;;;137.07;69.82;;;;;;;;;;5062523;28;20039;-84
2022/01/10 11:59:07;;;;;;;168.73;77.82;;;;;;;;;;5057513;28;20044;-83
2022/01/10 12:01:34;;;;;;;106.20;59.28;;;;;;;;;;5038901;28;20036;-83
2022/01/10 12:04:01;;;;;;;87.82;50.90;;;;;;;;;;5053330;28;20094;-84
2022/01/10 12:06:28;;;;;;;78.28;48.88;;;;;;;;;;5065935;28;20044;-84
2022/01/10 12:08:54;;;;;;;64.03;41.47;;;;;;;;;;5056606;28;20072;-83
2022/01/10 12:11:24;;;;;;;65.70;40.67;;;;;;;;;;5069045;28;20530;-83
2022/01/10 12:13:52;;;;;;;57.80;41.10;;;;;;;;;;5053089;28;20044;-83
2022/01/10 12:16:18;;;;;;;66.40;41.92;;;;;;;;;;5055810;28;20040;-83
2022/01/10 12:18:44;;;;;;;52.53;36.90;;;;;;;;;;5070193;28;20063;-83
2022/01/10 12:21:11;;;;;;;78.88;48.42;;;;;;;;;;5041069;28;20085;-83
2022/01/10 12:23:37;;;;;;;65.65;43.53;;;;;;;;;;5064370;28;20299;-83
2022/01/10 12:26:03;;;;;;;88.60;50.42;;;;;;;;;;5066099;28;20048;-83
2022/01/10 12:28:29;;;;;;;73.70;45.50;;;;;;;;;;5075140;28;20051;-83
2022/01/10 12:31:01;;;;;;;83.93;49.70;;;;;;;;;;5067165;28;20174;-83
2022/01/10 12:33:27;;;;;;;85.20;48.05;;;;;;;;;;5041900;28;20075;-83
2022/01/10 12:35:54;;;;;;;100.32;52.22;;;;;;;;;;5059672;28;20111;-83
2022/01/10 12:38:20;;;;;;;106.18;54.65;;;;;;;;;;5062149;28;20116;-84
2022/01/10 12:40:49;;;;;;;85.65;49.03;;;;;;;;;;5065741;28;20067;-84
2022/01/10 12:43:15;;;;;;;72.60;45.35;;;;;;;;;;5057081;28;20272;-83
2022/01/10 12:45:42;;;;;;;91.13;52.20;;;;;;;;;;5048291;28;20051;-83
2022/01/10 12:48:09;;;;;;;102.28;54.08;;;;;;;;;;5058562;28;20094;-83
2022/01/10 12:50:35;;;;;;;90.05;49.92;;;;;;;;;;5060782;28;20036;-84
2022/01/10 12:53:01;;;;;;;119.38;55.70;;;;;;;;;;5062786;28;20545;-83
2022/01/10 12:55:28;;;;;;;98.18;54.38;;;;;;;;;;5059558;28;20043;-83
2022/01/10 12:57:54;;;;;;;152.68;64.55;;;;;;;;;;5067028;28;20068;-84
2022/01/10 13:00:20;;;;;;;112.35;60.35;;;;;;;;;;5056443;28;20044;-85
2022/01/10 13:02:47;;;;;;;156.88;73.10;;;;;;;;;;5064847;28;20426;-84
2022/01/10 13:05:15;;;;;;;115.95;54.58;;;;;;;;;;5062169;28;20306;-84
2022/01/10 13:07:42;;;;;;;121.32;61.75;;;;;;;;;;5059675;28;20068;-83
2022/01/10 13:10:17;;;;;;;103.15;54.20;;;;;;;;;;5047435;28;20048;-84
2022/01/10 13:12:43;;;;;;;77.18;44.10;;;;;;;;;;5041588;28;20047;-84
2022/01/10 13:15:10;;;;;;;56.90;35.80;;;;;;;;;;5047790;28;20051;-84
2022/01/10 13:17:40;;;;;;;53.35;36.63;;;;;;;;;;5066636;28;20047;-84
2022/01/10 13:20:08;;;;;;;53.53;36.17;;;;;;;;;;5048368;28;20044;-84
2022/01/10 13:22:36;;;;;;;46.90;33.08;;;;;;;;;;5057176;28;20091;-84
2022/01/10 13:25:05;;;;;;;46.80;31.35;;;;;;;;;;5062121;28;20476;-84
2022/01/10 13:27:35;;;;;;;45.83;30.70;;;;;;;;;;5054554;28;20130;-84
2022/01/10 13:30:12;;;;;;;36.85;25.40;;;;;;;;;;5062892;28;20040;-84
2022/01/10 13:32:38;;;;;;;37.88;26.42;;;;;;;;;;5067597;28;20051;-84
2022/01/10 13:35:04;;;;;;;68.85;31.58;;;;;;;;;;5054814;28;20035;-84
2022/01/10 13:37:34;;;;;;;60.72;32.15;;;;;;;;;;5046408;28;20033;-84
2022/01/10 13:40:20;;;;;;;164.57;46.90;;;;;;;;;;5059809;28;20548;-84
2022/01/10 13:43:07;;;;;;;40.92;30.88;;;;;;;;;;5039431;28;20111;-84
2022/01/10 13:45:43;;;;;;;45.90;32.42;;;;;;;;;;5052741;28;20396;-84
2022/01/10 13:48:23;;;;;;;44.78;28.17;;;;;;;;;;5045519;28;20515;-84
2022/01/10 13:50:50;;;;;;;43.67;29.90;;;;;;;;;;5041345;28;20040;-84
2022/01/10 13:53:40;;;;;;;44.50;32.03;;;;;;;;;;5049321;28;20044;-84
2022/01/10 13:56:13;;;;;;;52.55;36.70;;;;;;;;;;5070413;28;20181;-84
2022/01/10 13:58:44;;;;;;;43.33;31.20;;;;;;;;;;5046546;28;20511;-83
2022/01/10 14:01:39;;;;;;;49.75;34.35;;;;;;;;;;5053291;28;20043;-84
2022/01/10 14:04:26;;;;;;;84.57;44.60;;;;;;;;;;5038964;28;20055;-84
2022/01/10 14:06:53;;;;;;;53.08;34.13;;;;;;;;;;5058880;28;20038;-83
2022/01/10 14:09:22;;;;;;;59.78;37.58;;;;;;;;;;5044125;28;20048;-84
2022/01/10 14:11:49;;;;;;;52.58;34.55;;;;;;;;;;5057504;28;20045;-84
2022/01/10 14:14:15;;;;;;;48.78;34.35;;;;;;;;;;5068966;28;20104;-83
2022/01/10 14:16:44;;;;;;;79.53;41.78;;;;;;;;;;5066894;28;20039;-84
2022/01/10 14:19:11;;;;;;;60.35;35.65;;;;;;;;;;5045211;28;20036;-84
2022/01/10 14:21:38;;;;;;;63.42;37.80;;;;;;;;;;5043371;28;20051;-84
2022/01/10 14:24:05;;;;;;;62.35;37.42;;;;;;;;;;5058601;28;20520;-84
2022/01/10 14:26:31;;;;;;;60.72;38.35;;;;;;;;;;5056241;28;20041;-84
2022/01/10 14:29:02;;;;;;;98.00;44.85;;;;;;;;;;5060995;28;20546;-84
2022/01/10 14:31:28;;;;;;;58.20;38.20;;;;;;;;;;5078467;28;20048;-84